Time;durP1;ratioP1;P1;durP2;ratioP2;P2;SDS_P1;SDS_P2;PMS_P1;PMS_P2;Temp;Humidity;BMP_temperature;BMP_pressure;BME280_temperature;BME280_humidity;BME280_pressure;Samples;Min_cycle;Max_cycle;Signal;HPM_P1;HPM_P2
2023/09/15 00:01:37;;;;;;;12.30;6.63;;;21.50;55.00;;;;;;5009210;28;114416;-79
2023/09/15 00:04:06;;;;;;;7.32;5.05;;;21.50;55.00;;;;;;4991981;28;114280;-79
2023/09/15 00:06:35;;;;;;;8.90;6.47;;;21.50;55.10;;;;;;5025765;27;115302;-78
2023/09/15 00:09:06;;;;;;;9.07;5.07;;;21.40;54.80;;;;;;5024508;28;114817;-79
2023/09/15 00:11:40;;;;;;;9.00;7.72;;;21.40;55.10;;;;;;5026544;28;114194;-78
2023/09/15 00:14:09;;;;;;;12.15;7.60;;;21.30;54.60;;;;;;5009211;28;114504;-78
2023/09/15 00:16:37;;;;;;;9.23;7.25;;;21.30;54.80;;;;;;5007921;27;114912;-79
2023/09/15 00:19:06;;;;;;;9.10;6.90;;;21.20;54.90;;;;;;5046630;27;114491;-78
2023/09/15 00:21:33;;;;;;;7.90;5.30;;;21.20;55.20;;;;;;5027797;27;114374;-79
2023/09/15 00:24:01;;;;;;;10.48;7.32;;;21.20;55.50;;;;;;5028458;27;114187;-78
2023/09/15 00:26:32;;;;;;;9.32;6.22;;;21.20;55.10;;;;;;5011206;27;114956;-79
2023/09/15 00:29:00;;;;;;;9.77;7.65;;;21.20;55.30;;;;;;5045717;27;114742;-78
2023/09/15 00:31:27;;;;;;;10.40;7.22;;;21.20;54.80;;;;;;5028656;27;114303;-78
2023/09/15 00:33:54;;;;;;;8.80;6.32;;;21.20;54.90;;;;;;5028694;27;114395;-78
2023/09/15 00:36:22;;;;;;;11.27;7.63;;;21.20;55.20;;;;;;5027309;27;114651;-78
2023/09/15 00:38:49;;;;;;;9.98;7.47;;;21.10;55.20;;;;;;4994594;27;114869;-78
2023/09/15 00:41:17;;;;;;;8.32;5.13;;;21.00;55.20;;;;;;5046213;27;114221;-78
2023/09/15 00:43:44;;;;;;;11.15;8.10;;;21.00;55.80;;;;;;5028475;27;114438;-78
2023/09/15 00:46:12;;;;;;;10.75;8.15;;;21.00;55.20;;;;;;5010185;27;115512;-78
2023/09/15 00:48:39;;;;;;;8.38;6.68;;;21.00;55.20;;;;;;5010375;27;118589;-78
2023/09/15 00:51:07;;;;;;;10.40;6.68;;;21.00;55.50;;;;;;5011028;27;114365;-78
2023/09/15 00:53:36;;;;;;;8.90;7.82;;;21.00;55.60;;;;;;4995114;27;114245;-78
2023/09/15 00:56:06;;;;;;;8.02;6.80;;;21.00;55.10;;;;;;5010828;27;115080;-79
2023/09/15 00:58:35;;;;;;;9.98;7.30;;;21.00;55.40;;;;;;5026080;27;116212;-78
2023/09/15 01:01:06;;;;;;;8.80;6.53;;;21.00;55.30;;;;;;5011881;27;114210;-78
2023/09/15 01:03:35;;;;;;;8.40;6.15;;;21.00;55.40;;;;;;5014736;27;114330;-79
2023/09/15 01:06:06;;;;;;;9.73;6.30;;;21.00;55.70;;;;;;5048586;27;115681;-79
2023/09/15 01:08:34;;;;;;;10.73;5.43;;;21.00;55.70;;;;;;5031004;27;114726;-78
2023/09/15 01:11:04;;;;;;;11.18;9.20;;;21.00;55.80;;;;;;5049103;27;115099;-79
2023/09/15 01:13:33;;;;;;;7.65;6.53;;;21.00;55.00;;;;;;5031183;27;114332;-78
2023/09/15 01:16:23;;;;;;;7.95;5.93;;;21.00;55.30;;;;;;5014047;27;116104;-79
2023/09/15 01:19:09;;;;;;;8.63;6.38;;;21.00;55.30;;;;;;5013414;27;116641;-78
2023/09/15 01:21:58;;;;;;;6.75;6.03;;;20.90;55.60;;;;;;5049347;27;114257;-78
2023/09/15 01:24:58;;;;;;;7.20;5.72;;;21.00;55.20;;;;;;5049538;27;113979;-78
2023/09/15 01:27:34;;;;;;;8.15;7.10;;;21.00;55.50;;;;;;5030101;27;115085;-79
2023/09/15 01:30:02;;;;;;;6.97;5.20;;;21.00;55.30;;;;;;5030829;27;114553;-79
2023/09/15 01:32:29;;;;;;;7.45;5.95;;;21.00;55.70;;;;;;5031554;27;114042;-78
2023/09/15 01:34:56;;;;;;;10.00;8.27;;;21.00;55.40;;;;;;5031479;27;114306;-79
2023/09/15 01:37:23;;;;;;;9.48;6.47;;;21.00;54.80;;;;;;5029018;27;117221;-78
2023/09/15 01:39:52;;;;;;;9.18;6.38;;;21.00;55.20;;;;;;5046683;27;115417;-78
2023/09/15 01:42:19;;;;;;;8.00;6.22;;;21.00;55.00;;;;;;5049240;27;114146;-79
2023/09/15 01:44:47;;;;;;;7.22;5.68;;;21.00;55.20;;;;;;5049188;27;114202;-79
2023/09/15 01:47:21;;;;;;;8.43;6.60;;;21.00;55.30;;;;;;5030382;27;115600;-78
2023/09/15 01:49:50;;;;;;;9.45;6.18;;;21.10;55.00;;;;;;5013681;27;114660;-79
2023/09/15 01:52:18;;;;;;;6.65;5.57;;;21.00;55.00;;;;;;5031028;27;114422;-78
2023/09/15 01:54:45;;;;;;;10.85;9.05;;;21.00;55.40;;;;;;4981635;27;114407;-78
2023/09/15 01:57:12;;;;;;;9.95;6.70;;;21.00;54.80;;;;;;5029900;27;115052;-78
2023/09/15 01:59:39;;;;;;;6.78;5.28;;;21.00;55.20;;;;;;5013080;27;114580;-78
2023/09/15 02:02:07;;;;;;;7.07;5.20;;;21.00;55.40;;;;;;5013746;27;114023;-78
2023/09/15 02:04:34;;;;;;;7.60;5.22;;;21.00;55.30;;;;;;5048770;27;114108;-78
2023/09/15 02:07:02;;;;;;;11.10;9.00;;;20.90;55.40;;;;;;5012894;27;117134;-78
2023/09/15 02:09:29;;;;;;;9.10;7.10;;;21.00;54.70;;;;;;5047846;27;115280;-78
2023/09/15 02:11:56;;;;;;;8.50;5.95;;;20.90;54.80;;;;;;5014030;27;114388;-79
2023/09/15 02:14:23;;;;;;;9.93;6.32;;;20.80;55.20;;;;;;5012893;27;114567;-78
2023/09/15 02:16:51;;;;;;;6.25;5.10;;;20.90;55.10;;;;;;5047404;27;114915;-78
2023/09/15 02:19:19;;;;;;;8.38;7.05;;;20.90;55.40;;;;;;5030201;27;114986;-78
2023/09/15 02:21:46;;;;;;;9.38;6.35;;;21.00;54.40;;;;;;5030298;27;114179;-78
2023/09/15 02:24:13;;;;;;;7.65;5.57;;;21.00;54.50;;;;;;5030321;27;114496;-78
2023/09/15 02:26:40;;;;;;;6.30;5.63;;;21.00;54.80;;;;;;5029070;27;115282;-77
2023/09/15 02:29:07;;;;;;;7.35;5.22;;;20.90;54.90;;;;;;5047515;27;115468;-78
2023/09/15 02:31:34;;;;;;;8.85;5.78;;;21.00;55.20;;;;;;5048491;27;114332;-78
2023/09/15 02:34:02;;;;;;;8.13;5.72;;;20.90;54.80;;;;;;5048600;27;114162;-78
2023/09/15 02:36:29;;;;;;;7.05;5.07;;;20.90;55.00;;;;;;5029564;27;115165;-78
2023/09/15 02:38:56;;;;;;;6.28;4.93;;;20.90;55.20;;;;;;5028966;27;115971;-78
2023/09/15 02:41:23;;;;;;;7.50;4.80;;;20.90;55.40;;;;;;5048283;27;114324;-78
2023/09/15 02:43:50;;;;;;;7.72;6.22;;;21.00;55.30;;;;;;5048622;27;114311;-78
2023/09/15 02:46:17;;;;;;;6.43;4.90;;;21.00;54.80;;;;;;5047338;27;114996;-78
2023/09/15 02:48:45;;;;;;;6.18;5.18;;;21.10;54.90;;;;;;5029269;27;115605;-79
2023/09/15 02:51:14;;;;;;;10.52;8.07;;;21.10;54.80;;;;;;5012907;27;114253;-79
2023/09/15 02:53:41;;;;;;;12.73;9.15;;;21.10;54.50;;;;;;5013645;27;114393;-78
2023/09/15 02:56:09;;;;;;;18.13;11.82;;;21.10;53.90;;;;;;5028931;27;114939;-79
2023/09/15 02:58:37;;;;;;;9.85;5.97;;;21.00;53.80;;;;;;5028647;27;115379;-79
2023/09/15 03:01:15;;;;;;;14.25;8.90;;;20.80;54.80;;;;;;5013699;27;114309;-79
2023/09/15 03:03:49;;;;;;;11.65;7.18;;;20.90;54.20;;;;;;5029824;27;114116;-79
2023/09/15 03:06:17;;;;;;;10.80;8.23;;;20.80;54.70;;;;;;5046907;27;114977;-79
2023/09/15 03:08:44;;;;;;;9.15;6.25;;;20.70;54.70;;;;;;5012715;27;114769;-78
2023/09/15 03:11:19;;;;;;;11.25;7.32;;;20.70;55.00;;;;;;5013143;27;114201;-79
2023/09/15 03:13:49;;;;;;;9.00;6.93;;;20.70;54.90;;;;;;4981179;27;114394;-78
2023/09/15 03:16:16;;;;;;;13.35;9.75;;;20.60;55.30;;;;;;5028148;27;115021;-78
2023/09/15 03:18:46;;;;;;;12.35;8.70;;;20.60;54.70;;;;;;5046728;27;114803;-78
2023/09/15 03:21:16;;;;;;;9.00;5.60;;;20.60;54.80;;;;;;5029535;27;114173;-78
2023/09/15 03:23:44;;;;;;;12.52;8.55;;;20.60;55.60;;;;;;4996478;27;114585;-79
2023/09/15 03:26:12;;;;;;;13.30;10.60;;;20.60;54.90;;;;;;5028190;27;115304;-78
2023/09/15 03:28:42;;;;;;;14.18;12.35;;;20.70;54.60;;;;;;4996354;27;115074;-79
2023/09/15 03:31:10;;;;;;;12.25;8.13;;;20.60;54.30;;;;;;5012248;27;114394;-78
2023/09/15 03:33:38;;;;;;;7.72;6.15;;;20.50;55.10;;;;;;5029912;27;114274;-79
2023/09/15 03:36:07;;;;;;;10.15;7.95;;;20.50;55.50;;;;;;5027630;27;115084;-78
2023/09/15 03:38:34;;;;;;;9.73;7.72;;;20.60;55.40;;;;;;5028323;27;115349;-78
2023/09/15 03:41:01;;;;;;;12.05;8.55;;;20.50;55.30;;;;;;5011961;27;114606;-79
2023/09/15 03:43:28;;;;;;;11.00;7.72;;;20.60;55.20;;;;;;5029168;27;114354;-78
2023/09/15 03:45:58;;;;;;;12.50;8.57;;;20.60;55.40;;;;;;5028119;27;115500;-79
2023/09/15 03:48:26;;;;;;;9.50;6.85;;;20.60;55.00;;;;;;5028302;27;114663;-78
2023/09/15 03:50:55;;;;;;;15.10;11.10;;;20.50;55.30;;;;;;5029130;27;114167;-78
2023/09/15 03:53:22;;;;;;;13.15;9.90;;;20.60;54.60;;;;;;5028994;27;114254;-78
2023/09/15 03:55:49;;;;;;;14.18;11.43;;;20.60;54.80;;;;;;4994902;27;115044;-78
2023/09/15 03:58:16;;;;;;;10.35;7.53;;;20.60;54.50;;;;;;5028251;27;115508;-79
2023/09/15 04:00:44;;;;;;;13.40;10.38;;;20.50;55.40;;;;;;5028325;27;114335;-78
2023/09/15 04:03:11;;;;;;;11.73;8.02;;;20.50;54.70;;;;;;5028871;27;114515;-79
2023/09/15 04:05:38;;;;;;;10.68;7.45;;;20.60;55.30;;;;;;5027536;27;114905;-78
2023/09/15 04:08:08;;;;;;;11.00;7.22;;;20.60;55.30;;;;;;4995038;27;118122;-78
2023/09/15 04:10:35;;;;;;;13.43;9.18;;;20.60;55.40;;;;;;5028001;27;114238;-79
2023/09/15 04:13:03;;;;;;;9.65;7.10;;;20.70;54.70;;;;;;4995828;27;114318;-79
2023/09/15 04:15:30;;;;;;;9.80;8.05;;;20.60;55.20;;;;;;5045962;27;115025;-78
2023/09/15 04:17:57;;;;;;;9.52;7.10;;;20.70;55.00;;;;;;5045171;27;114543;-78
2023/09/15 04:20:27;;;;;;;10.88;8.63;;;20.70;55.20;;;;;;5028560;27;114377;-78
2023/09/15 04:23:11;;;;;;;12.00;7.00;;;20.70;54.80;;;;;;5028606;27;114318;-78
2023/09/15 04:25:39;;;;;;;10.45;6.95;;;20.70;55.20;;;;;;5011142;27;114970;-79
2023/09/15 04:28:06;;;;;;;9.35;6.95;;;20.70;55.20;;;;;;5045660;27;114738;-79
2023/09/15 04:30:33;;;;;;;14.05;9.10;;;20.80;55.00;;;;;;5011735;27;114222;-79
2023/09/15 04:33:01;;;;;;;10.27;6.68;;;20.80;54.10;;;;;;5011909;27;114236;-79
2023/09/15 04:35:28;;;;;;;11.75;8.15;;;20.80;54.50;;;;;;5010956;27;114916;-78
2023/09/15 04:37:55;;;;;;;12.20;9.48;;;20.80;54.20;;;;;;5044421;27;115808;-78
2023/09/15 04:40:22;;;;;;;9.60;7.45;;;20.80;53.80;;;;;;5028483;27;114132;-78
2023/09/15 04:42:50;;;;;;;12.52;8.70;;;20.80;54.60;;;;;;5028463;27;114234;-78
2023/09/15 04:45:17;;;;;;;10.30;8.02;;;20.80;54.20;;;;;;5045369;27;114929;-78
2023/09/15 04:47:45;;;;;;;12.70;8.55;;;20.80;54.30;;;;;;5027576;27;114749;-78
2023/09/15 04:50:18;;;;;;;10.50;8.18;;;20.70;54.30;;;;;;5028201;27;114151;-78
2023/09/15 04:52:47;;;;;;;13.40;11.07;;;20.80;54.40;;;;;;5011596;27;114366;-79
2023/09/15 04:55:15;;;;;;;9.02;7.10;;;20.60;54.20;;;;;;4977087;27;115286;-78
2023/09/15 04:57:42;;;;;;;10.50;7.80;;;20.50;55.20;;;;;;4993261;27;116623;-78
2023/09/15 05:00:13;;;;;;;13.75;9.88;;;20.50;55.30;;;;;;5028121;27;114606;-78
2023/09/15 05:02:42;;;;;;;17.40;12.23;;;20.60;54.90;;;;;;5028060;27;114221;-78
2023/09/15 05:05:09;;;;;;;16.30;11.52;;;20.60;54.70;;;;;;5045177;27;114790;-79
2023/09/15 05:07:36;;;;;;;14.70;11.10;;;20.70;54.50;;;;;;5045229;27;114983;-78
2023/09/15 05:10:03;;;;;;;16.17;10.75;;;20.70;54.60;;;;;;5046443;27;114448;-78
2023/09/15 05:12:32;;;;;;;14.02;9.50;;;20.70;54.50;;;;;;5028327;27;114328;-76
2023/09/15 05:14:59;;;;;;;13.75;10.02;;;20.70;54.60;;;;;;5027051;27;114998;-78
2023/09/15 05:17:27;;;;;;;11.40;8.65;;;20.70;54.60;;;;;;5026737;27;114857;-78
2023/09/15 05:19:56;;;;;;;14.68;9.95;;;20.70;54.90;;;;;;5010605;27;114453;-78
2023/09/15 05:22:23;;;;;;;12.90;8.35;;;20.70;54.70;;;;;;5028257;27;114208;-79
2023/09/15 05:24:51;;;;;;;12.77;9.68;;;20.70;54.90;;;;;;5009094;27;117139;-79
2023/09/15 05:27:22;;;;;;;12.77;9.00;;;20.80;54.70;;;;;;5010764;27;114685;-78
2023/09/15 05:29:50;;;;;;;15.20;10.35;;;20.80;54.70;;;;;;5027781;27;114363;-79
2023/09/15 05:32:18;;;;;;;13.45;10.25;;;20.80;54.30;;;;;;5011359;27;114409;-78
2023/09/15 05:34:45;;;;;;;15.32;8.88;;;20.90;54.50;;;;;;5009255;27;116984;-78
2023/09/15 05:37:13;;;;;;;12.45;9.45;;;20.90;54.40;;;;;;5045256;27;114698;-78
2023/09/15 05:39:41;;;;;;;15.40;12.05;;;20.90;54.40;;;;;;4995065;27;114271;-79
2023/09/15 05:42:09;;;;;;;20.13;17.30;;;21.00;54.10;;;;;;5010997;27;114242;-78
2023/09/15 05:44:36;;;;;;;12.23;9.45;;;21.00;53.80;;;;;;5026338;27;114926;-78
2023/09/15 05:47:03;;;;;;;11.55;8.68;;;20.90;54.30;;;;;;5026225;27;116573;-77
2023/09/15 05:49:31;;;;;;;14.02;11.00;;;21.00;54.30;;;;;;5013932;27;114323;-78
2023/09/15 05:51:58;;;;;;;14.38;11.43;;;21.00;54.10;;;;;;5030895;27;114317;-79
2023/09/15 05:54:26;;;;;;;11.93;9.52;;;21.10;54.00;;;;;;5048065;27;114931;-78
2023/09/15 05:56:53;;;;;;;13.57;9.27;;;21.10;54.00;;;;;;5048076;27;114801;-78
2023/09/15 05:59:20;;;;;;;18.17;12.52;;;21.20;54.00;;;;;;5048724;27;114731;-78
2023/09/15 06:01:47;;;;;;;13.15;10.85;;;21.20;53.70;;;;;;5049348;27;114049;-78
2023/09/15 06:04:15;;;;;;;20.70;15.52;;;21.30;53.70;;;;;;5046621;27;115088;-78
2023/09/15 06:06:42;;;;;;;12.57;9.52;;;21.30;53.40;;;;;;5047641;27;115821;-78
2023/09/15 06:09:10;;;;;;;14.27;11.23;;;21.30;53.60;;;;;;5048325;27;114010;-78
2023/09/15 06:11:37;;;;;;;14.35;10.50;;;21.20;53.60;;;;;;5048881;27;114002;-79
2023/09/15 06:14:04;;;;;;;11.90;9.45;;;21.30;53.80;;;;;;5013066;27;115160;-79
2023/09/15 06:16:34;;;;;;;19.70;14.15;;;21.30;53.80;;;;;;5047072;27;115350;-78
2023/09/15 06:19:02;;;;;;;17.17;13.52;;;21.30;53.30;;;;;;5044781;27;114593;-78
2023/09/15 06:21:30;;;;;;;22.92;16.30;;;21.30;53.50;;;;;;5048624;27;114275;-79
2023/09/15 06:23:57;;;;;;;15.00;10.95;;;21.30;53.30;;;;;;5029593;27;115247;-79
2023/09/15 06:26:24;;;;;;;14.77;12.32;;;21.30;53.60;;;;;;5047668;27;116100;-78
2023/09/15 06:28:51;;;;;;;21.45;16.63;;;21.20;53.60;;;;;;5013734;27;114149;-78
2023/09/15 06:31:22;;;;;;;15.95;11.82;;;21.20;53.30;;;;;;5014596;27;114612;-79
2023/09/15 06:33:49;;;;;;;18.92;15.32;;;21.00;53.70;;;;;;5046758;27;117156;-80
2023/09/15 06:36:16;;;;;;;21.55;17.27;;;20.90;54.00;;;;;;5029402;27;115043;-78
2023/09/15 06:38:43;;;;;;;20.38;15.80;;;20.80;54.20;;;;;;5048372;27;114306;-80
2023/09/15 06:41:10;;;;;;;16.90;12.65;;;20.80;54.20;;;;;;5013761;27;114032;-78
2023/09/15 06:43:37;;;;;;;15.20;11.55;;;20.90;54.40;;;;;;5047477;27;114951;-78
2023/09/15 06:46:05;;;;;;;16.10;11.95;;;21.00;54.30;;;;;;5012889;27;115042;-79
2023/09/15 06:48:33;;;;;;;14.32;11.75;;;21.00;54.20;;;;;;5030236;27;114349;-78
2023/09/15 06:51:00;;;;;;;18.17;14.45;;;21.10;54.10;;;;;;5030128;27;114562;-78
2023/09/15 06:53:27;;;;;;;17.42;14.30;;;21.20;53.80;;;;;;5029041;27;115395;-79
2023/09/15 06:55:55;;;;;;;21.85;16.10;;;21.20;53.80;;;;;;5029250;27;114924;-79
2023/09/15 06:58:24;;;;;;;17.67;12.85;;;21.30;53.80;;;;;;5047339;27;114155;-79
2023/09/15 07:00:54;;;;;;;21.88;17.52;;;21.30;53.80;;;;;;5046894;27;114291;-77
2023/09/15 07:03:21;;;;;;;15.68;12.50;;;21.30;53.60;;;;;;5027621;27;117455;-79
2023/09/15 07:05:48;;;;;;;24.40;18.60;;;21.20;53.90;;;;;;5029123;27;115087;-78
2023/09/15 07:08:15;;;;;;;19.00;14.90;;;21.20;53.80;;;;;;5047933;27;114108;-78
2023/09/15 07:10:43;;;;;;;33.10;24.17;;;21.00;54.00;;;;;;5029775;27;114237;-79
2023/09/15 07:13:10;;;;;;;22.30;17.98;;;21.00;54.00;;;;;;5012054;27;114990;-77
2023/09/15 07:15:37;;;;;;;32.88;25.05;;;20.90;54.20;;;;;;5029213;27;114761;-79
2023/09/15 07:18:12;;;;;;;19.60;15.43;;;20.80;54.40;;;;;;5030115;27;114467;-78
2023/09/15 07:20:39;;;;;;;35.70;23.85;;;20.80;54.60;;;;;;5033813;27;114009;-78
2023/09/15 07:23:06;;;;;;;37.38;27.88;;;20.80;54.80;;;;;;5046184;27;115243;-77
2023/09/15 07:25:33;;;;;;;30.10;23.13;;;20.80;54.70;;;;;;5046575;27;114763;-77
2023/09/15 07:28:01;;;;;;;26.98;21.17;;;20.80;54.80;;;;;;5047501;27;114301;-78
2023/09/15 07:30:28;;;;;;;29.02;20.75;;;20.80;54.90;;;;;;5029490;27;114433;-78
2023/09/15 07:32:55;;;;;;;26.63;18.55;;;20.80;55.00;;;;;;5011903;27;114927;-78
2023/09/15 07:35:22;;;;;;;22.55;17.35;;;20.80;54.90;;;;;;5046036;27;115455;-78
2023/09/15 07:37:49;;;;;;;19.70;16.27;;;20.80;55.00;;;;;;5047465;27;114064;-77
2023/09/15 07:40:18;;;;;;;38.50;29.80;;;20.80;55.00;;;;;;5028845;27;114427;-79
2023/09/15 07:42:50;;;;;;;;;;;20.80;55.10;;;;;;5029750;27;114875;-79
2023/09/15 07:45:18;;;;;;;22.00;16.75;;;20.80;54.80;;;;;;5028293;27;114757;-79
2023/09/15 07:47:45;;;;;;;33.30;26.13;;;20.80;55.40;;;;;;5028501;27;114231;-78
2023/09/15 07:50:13;;;;;;;38.83;30.08;;;20.90;55.30;;;;;;5029131;27;114122;-79
2023/09/15 07:52:40;;;;;;;17.10;13.98;;;21.00;55.10;;;;;;5046230;27;114896;-78
2023/09/15 07:55:07;;;;;;;20.95;16.20;;;21.10;54.90;;;;;;5010575;27;115265;-80
2023/09/15 07:57:37;;;;;;;27.60;22.63;;;21.20;54.60;;;;;;5047119;27;114468;-78
2023/09/15 08:00:06;;;;;;;23.02;18.25;;;21.30;54.50;;;;;;5046822;27;114297;-78
2023/09/15 08:02:39;;;;;;;26.52;22.48;;;21.40;54.20;;;;;;5046092;27;115640;-78
2023/09/15 08:05:06;;;;;;;22.00;18.33;;;21.50;54.20;;;;;;5028357;27;114950;-78
2023/09/15 08:07:33;;;;;;;26.98;24.05;;;21.60;53.90;;;;;;5046991;27;114311;-78
2023/09/15 08:10:01;;;;;;;27.95;23.95;;;21.70;54.10;;;;;;5046949;27;114154;-77
2023/09/15 08:12:28;;;;;;;25.77;22.85;;;21.80;53.70;;;;;;5026329;27;114993;-78
2023/09/15 08:14:55;;;;;;;21.48;18.33;;;21.70;53.70;;;;;;5045882;27;115162;-78
2023/09/15 08:17:22;;;;;;;34.83;29.67;;;21.80;53.70;;;;;;5046366;27;114375;-79
2023/09/15 08:20:00;;;;;;;25.33;21.83;;;21.80;54.10;;;;;;5046881;27;114222;-78
2023/09/15 08:22:27;;;;;;;27.05;24.08;;;21.80;53.70;;;;;;5027660;27;115541;-78
2023/09/15 08:24:54;;;;;;;24.33;21.42;;;21.80;53.70;;;;;;5045957;27;114592;-79
2023/09/15 08:27:22;;;;;;;19.77;17.63;;;21.90;53.50;;;;;;5046679;27;114333;-79
2023/09/15 08:29:49;;;;;;;17.90;16.00;;;22.10;53.00;;;;;;5047223;27;114061;-80
2023/09/15 08:32:16;;;;;;;18.70;16.20;;;22.30;52.70;;;;;;5045622;27;114935;-79
2023/09/15 08:34:46;;;;;;;27.35;24.35;;;22.40;52.60;;;;;;5045506;27;116235;-79
2023/09/15 08:37:14;;;;;;;25.83;23.30;;;22.50;52.90;;;;;;5046022;27;114214;-78
2023/09/15 08:39:41;;;;;;;22.60;20.23;;;22.40;53.00;;;;;;5046510;27;114329;-79
2023/09/15 08:42:13;;;;;;;18.77;16.80;;;22.30;52.90;;;;;;5027663;27;115022;-78
2023/09/15 08:44:40;;;;;;;18.58;16.58;;;22.30;53.00;;;;;;5028232;27;115259;-79
2023/09/15 08:47:08;;;;;;;17.77;15.90;;;22.40;52.40;;;;;;4994995;27;114467;-79
2023/09/15 08:49:36;;;;;;;15.00;12.70;;;22.30;52.30;;;;;;4994844;27;114181;-79
2023/09/15 08:52:04;;;;;;;16.92;15.13;;;22.30;52.10;;;;;;5027774;27;115001;-79
2023/09/15 08:54:31;;;;;;;16.58;14.88;;;22.40;51.60;;;;;;5027170;27;117840;-78
2023/09/15 08:56:58;;;;;;;19.05;15.05;;;22.40;52.10;;;;;;5011824;27;114209;-78
2023/09/15 08:59:25;;;;;;;15.98;13.57;;;22.30;52.20;;;;;;5011621;27;114488;-79
2023/09/15 09:01:52;;;;;;;18.55;15.77;;;22.30;52.30;;;;;;5010151;27;114950;-81
2023/09/15 09:04:20;;;;;;;19.95;17.85;;;22.30;52.60;;;;;;5009851;27;116996;-78
2023/09/15 09:06:47;;;;;;;16.33;14.63;;;22.30;52.40;;;;;;5028388;27;114401;-79
2023/09/15 09:09:14;;;;;;;14.63;13.15;;;22.30;52.30;;;;;;4978329;27;114472;-80
2023/09/15 09:11:42;;;;;;;16.38;14.68;;;22.40;52.10;;;;;;5027285;27;114970;-78
2023/09/15 09:14:12;;;;;;;16.33;14.55;;;22.50;51.90;;;;;;5027314;27;114557;-80
2023/09/15 09:16:42;;;;;;;16.48;13.70;;;22.50;51.70;;;;;;5046140;27;114066;-78
2023/09/15 09:19:10;;;;;;;16.95;14.32;;;22.50;51.90;;;;;;5028102;27;114281;-79
2023/09/15 09:21:37;;;;;;;18.45;15.18;;;22.40;52.00;;;;;;5045219;27;114889;-79
2023/09/15 09:24:05;;;;;;;16.85;15.15;;;22.30;52.10;;;;;;5029434;27;114680;-79
2023/09/15 09:26:32;;;;;;;17.00;14.05;;;22.00;52.60;;;;;;5049026;27;114101;-79
2023/09/15 09:28:59;;;;;;;17.35;15.48;;;22.00;53.00;;;;;;5049590;27;114347;-78
2023/09/15 09:31:27;;;;;;;14.60;12.48;;;22.00;52.60;;;;;;5029668;27;117592;-78
2023/09/15 09:33:55;;;;;;;15.60;14.00;;;22.10;52.70;;;;;;5030889;27;114541;-79
2023/09/15 09:36:23;;;;;;;15.60;14.00;;;22.20;52.00;;;;;;5031195;27;114415;-79
2023/09/15 09:38:51;;;;;;;15.07;13.55;;;22.10;51.90;;;;;;5030433;27;114296;-77
2023/09/15 09:41:19;;;;;;;16.15;14.45;;;21.90;52.20;;;;;;5030437;27;115076;-78
2023/09/15 09:43:49;;;;;;;15.32;12.40;;;21.70;52.60;;;;;;5048660;27;114777;-79
2023/09/15 09:46:22;;;;;;;15.10;13.15;;;21.60;53.00;;;;;;5031751;27;114310;-78
2023/09/15 09:48:50;;;;;;;13.02;11.70;;;21.50;53.30;;;;;;5031951;27;114480;-79
2023/09/15 09:51:18;;;;;;;13.63;11.80;;;21.40;53.60;;;;;;5029880;27;115069;-78
2023/09/15 09:53:46;;;;;;;12.20;9.75;;;21.30;53.30;;;;;;5048268;27;115177;-77
2023/09/15 09:56:13;;;;;;;11.73;10.15;;;21.30;53.60;;;;;;5049152;27;114467;-77
2023/09/15 09:58:41;;;;;;;9.25;8.35;;;21.30;53.90;;;;;;5047795;27;114457;-79
2023/09/15 10:01:11;;;;;;;8.95;7.95;;;21.30;53.10;;;;;;5048217;27;115088;-78
2023/09/15 10:03:38;;;;;;;9.23;8.20;;;21.00;53.30;;;;;;5048123;27;114611;-79
2023/09/15 10:06:06;;;;;;;10.13;7.93;;;20.80;54.00;;;;;;5030408;27;114120;-79
2023/09/15 10:08:33;;;;;;;9.45;6.93;;;20.90;53.90;;;;;;5049353;27;114120;-78
2023/09/15 10:11:00;;;;;;;8.57;6.60;;;20.80;54.30;;;;;;5047845;27;115078;-79
2023/09/15 10:13:28;;;;;;;8.75;6.50;;;20.80;54.10;;;;;;5029786;27;114663;-79
2023/09/15 10:15:55;;;;;;;7.68;5.53;;;21.00;53.50;;;;;;5013259;27;114441;-78
2023/09/15 10:18:23;;;;;;;7.65;5.90;;;21.00;53.20;;;;;;5013313;27;114174;-78
2023/09/15 10:20:53;;;;;;;7.85;5.07;;;20.90;53.20;;;;;;5047842;27;114872;-78
2023/09/15 10:23:20;;;;;;;8.02;5.25;;;20.90;53.20;;;;;;5047648;27;114798;-79
2023/09/15 10:25:52;;;;;;;7.18;4.95;;;20.90;52.60;;;;;;5048572;27;114060;-79
2023/09/15 10:28:21;;;;;;;7.13;5.18;;;20.80;52.90;;;;;;5030930;27;114261;-78
2023/09/15 10:31:07;;;;;;;7.18;5.30;;;20.70;53.00;;;;;;5018824;27;115353;-79
2023/09/15 10:33:42;;;;;;;5.57;4.35;;;20.70;53.40;;;;;;5047918;27;114712;-79
2023/09/15 10:36:11;;;;;;;7.47;4.78;;;20.70;53.00;;;;;;5047690;27;113946;-78
2023/09/15 10:38:40;;;;;;;8.20;4.72;;;20.70;53.40;;;;;;5030504;27;114240;-78
2023/09/15 10:41:10;;;;;;;6.75;4.35;;;20.70;53.50;;;;;;5028433;27;116068;-78
2023/09/15 10:43:49;;;;;;;6.35;4.50;;;20.70;53.30;;;;;;5030103;27;115186;-78
2023/09/15 10:46:16;;;;;;;8.38;4.28;;;20.80;53.50;;;;;;5048313;27;114494;-78
2023/09/15 10:48:46;;;;;;;5.25;4.40;;;20.90;53.00;;;;;;5030405;27;114461;-78
2023/09/15 10:51:18;;;;;;;5.18;3.63;;;21.00;52.90;;;;;;5013340;27;115601;-78
2023/09/15 10:54:04;;;;;;;5.80;3.70;;;21.00;52.60;;;;;;5013135;27;114652;-79
2023/09/15 10:56:32;;;;;;;4.50;3.50;;;21.00;51.60;;;;;;5013337;27;114315;-77
2023/09/15 10:58:59;;;;;;;5.35;3.22;;;20.80;51.80;;;;;;5030011;27;114224;-79
2023/09/15 11:01:26;;;;;;;4.95;2.83;;;20.80;51.80;;;;;;5028995;27;115614;-78
2023/09/15 11:03:54;;;;;;;5.78;3.15;;;20.90;51.50;;;;;;5012407;27;114724;-78
2023/09/15 11:06:22;;;;;;;5.55;3.08;;;20.90;51.50;;;;;;5012589;27;114416;-78
2023/09/15 11:08:49;;;;;;;5.07;3.10;;;21.00;51.00;;;;;;5029948;27;114415;-78
2023/09/15 11:11:17;;;;;;;4.93;2.92;;;21.10;51.30;;;;;;5028969;27;114895;-78
2023/09/15 11:13:44;;;;;;;5.15;2.80;;;21.20;51.00;;;;;;5029098;27;114693;-78
2023/09/15 11:16:11;;;;;;;4.65;2.70;;;21.30;51.30;;;;;;5047864;27;114308;-77
2023/09/15 11:18:39;;;;;;;4.13;2.88;;;21.30;50.80;;;;;;5009241;28;114339;-77
2023/09/15 11:21:06;;;;;;;4.72;2.65;;;21.30;51.00;;;;;;5008725;28;115571;-79
2023/09/15 11:23:36;;;;;;;4.50;2.78;;;21.30;49.40;;;;;;5026744;28;114821;-78
2023/09/15 11:26:07;;;;;;;3.88;2.38;;;21.30;49.80;;;;;;5027633;27;114213;-79
2023/09/15 11:28:53;;;;;;;4.57;2.83;;;21.30;49.80;;;;;;5026590;28;114189;-78
2023/09/15 11:31:21;;;;;;;4.38;2.63;;;21.20;49.50;;;;;;5024980;28;114831;-78
2023/09/15 11:33:48;;;;;;;4.78;2.42;;;21.10;50.70;;;;;;5025442;28;114646;-78
2023/09/15 11:36:15;;;;;;;4.60;3.03;;;21.30;50.40;;;;;;5009206;28;114069;-78
2023/09/15 11:38:44;;;;;;;6.72;2.75;;;21.30;49.70;;;;;;5026003;28;114412;-78
2023/09/15 11:41:12;;;;;;;4.85;2.50;;;21.40;49.40;;;;;;5008815;28;114828;-78
2023/09/15 11:43:39;;;;;;;5.15;2.90;;;21.40;49.60;;;;;;5025020;28;114667;-79
2023/09/15 11:46:07;;;;;;;3.80;2.22;;;21.50;48.50;;;;;;5026822;27;114003;-78
2023/09/15 11:48:38;;;;;;;4.28;2.10;;;21.40;48.50;;;;;;5026178;28;114231;-78
2023/09/15 11:51:09;;;;;;;3.92;2.00;;;21.40;48.50;;;;;;4992987;28;115616;-78
2023/09/15 11:53:39;;;;;;;4.70;2.00;;;21.40;48.60;;;;;;5026092;28;114655;-79
2023/09/15 11:56:06;;;;;;;4.40;2.03;;;21.40;48.40;;;;;;5025983;28;114219;-78
2023/09/15 11:58:33;;;;;;;3.13;1.80;;;21.30;48.20;;;;;;5026691;28;114034;-79
2023/09/15 12:01:01;;;;;;;3.10;1.90;;;21.40;48.40;;;;;;5024989;28;115748;-79
2023/09/15 12:03:29;;;;;;;3.75;2.08;;;21.40;48.00;;;;;;5024733;28;114687;-79
2023/09/15 12:05:57;;;;;;;3.55;2.10;;;21.30;48.20;;;;;;5009255;28;114281;-79
2023/09/15 12:08:24;;;;;;;4.47;2.00;;;21.30;48.80;;;;;;5025608;28;114384;-79
2023/09/15 12:10:51;;;;;;;4.68;1.85;;;21.30;48.90;;;;;;5008126;28;114879;-79
2023/09/15 12:13:37;;;;;;;3.38;1.92;;;21.40;48.80;;;;;;5025012;28;115579;-78
2023/09/15 12:16:05;;;;;;;4.95;2.35;;;21.40;48.10;;;;;;5024801;28;114232;-78
2023/09/15 12:18:38;;;;;;;4.20;2.22;;;21.30;48.30;;;;;;5040519;27;114330;-79
2023/09/15 12:21:15;;;;;;;3.47;1.80;;;21.30;48.50;;;;;;5045115;27;116288;-79
2023/09/15 12:23:43;;;;;;;5.70;1.90;;;21.30;48.40;;;;;;5027675;27;114719;-79
2023/09/15 12:26:11;;;;;;;4.07;1.95;;;21.40;48.20;;;;;;4996009;27;114438;-78
2023/09/15 12:28:41;;;;;;;3.13;1.80;;;21.40;47.10;;;;;;5033234;27;114536;-78
2023/09/15 12:31:08;;;;;;;3.88;1.73;;;21.40;47.00;;;;;;5027674;27;114886;-79
2023/09/15 12:33:35;;;;;;;3.78;2.08;;;21.40;46.80;;;;;;5044749;27;114795;-79
2023/09/15 12:36:06;;;;;;;3.80;1.63;;;21.50;47.10;;;;;;5046568;27;114320;-78